Time;durP1;ratioP1;P1;durP2;ratioP2;P2;SDS_P1;SDS_P2;PMS_P1;PMS_P2;Temp;Humidity;BMP_temperature;BMP_pressure;BME280_temperature;BME280_humidity;BME280_pressure;Samples;Min_cycle;Max_cycle;Signal;HPM_P1;HPM_P2
2021/08/22 00:00:29;;;;;;;9.75;7.57;;;;;;;17.77;100.00;95143.69;4993367;28;20065;-52
2021/08/22 00:03:06;;;;;;;11.20;7.47;;;;;;;17.89;100.00;95154.75;4993352;28;20027;-49
2021/08/22 00:05:36;;;;;;;13.23;8.20;;;;;;;18.13;100.00;95156.38;4993446;28;20030;-47
2021/08/22 00:08:02;;;;;;;19.52;8.80;;;;;;;18.24;100.00;95160.41;4975850;28;20026;-48
2021/08/22 00:10:30;;;;;;;14.80;8.98;;;;;;;18.29;100.00;95145.91;4993183;28;20448;-47
2021/08/22 00:12:58;;;;;;;12.07;8.88;;;;;;;18.29;100.00;95154.84;4993101;28;20030;-48
2021/08/22 00:15:30;;;;;;;11.73;9.55;;;;;;;18.27;100.00;95164.41;4993177;28;20030;-50
2021/08/22 00:18:02;;;;;;;14.88;9.52;;;;;;;18.25;100.00;95173.66;4975701;28;20023;-54
2021/08/22 00:20:40;;;;;;;15.53;10.23;;;;;;;18.23;100.00;95191.31;4975830;28;20460;-49
2021/08/22 00:23:05;;;;;;;13.68;10.15;;;;;;;18.13;100.00;95254.75;4992948;28;20038;-49
2021/08/22 00:25:31;;;;;;;27.92;12.38;;;;;;;18.01;100.00;95316.81;4992818;28;20066;-54
2021/08/22 00:28:00;;;;;;;23.40;11.43;;;;;;;17.86;100.00;95312.53;4993150;28;20022;-48
2021/08/22 00:30:28;;;;;;;11.38;7.72;;;;;;;17.62;100.00;95304.66;4992934;28;20547;-47
2021/08/22 00:33:04;;;;;;;12.73;7.38;;;;;;;17.42;100.00;95315.09;4992882;28;20041;-48
2021/08/22 00:35:30;;;;;;;11.38;5.35;;;;;;;17.16;100.00;95293.97;4975528;28;20026;-49
2021/08/22 00:37:57;;;;;;;11.68;5.10;;;;;;;17.01;100.00;95257.16;4992559;28;20500;-53
2021/08/22 00:40:24;;;;;;;9.40;4.82;;;;;;;16.97;100.00;95236.44;4975690;28;20038;-46
2021/08/22 00:42:49;;;;;;;6.18;4.00;;;;;;;16.90;100.00;95203.56;4992864;28;20029;-53
2021/08/22 00:45:20;;;;;;;8.25;4.68;;;;;;;16.84;100.00;95205.56;4979857;28;20022;-51
2021/08/22 00:47:50;;;;;;;7.75;4.10;;;;;;;16.79;100.00;95195.63;4975369;28;20054;-51
2021/08/22 00:50:21;;;;;;;5.32;3.58;;;;;;;16.74;100.00;95190.34;4975337;28;20029;-53
2021/08/22 00:52:50;;;;;;;8.38;3.80;;;;;;;16.67;100.00;95184.50;4992565;28;20042;-51
2021/08/22 00:55:16;;;;;;;6.78;3.42;;;;;;;16.62;100.00;95184.59;4992833;28;20029;-50
2021/08/22 00:57:51;;;;;;;6.45;3.83;;;;;;;16.55;100.00;95175.28;4959107;28;20030;-54
2021/08/22 01:00:19;;;;;;;4.90;3.42;;;;;;;16.46;100.00;95188.69;4992928;28;20031;-49
2021/08/22 01:03:13;;;;;;;4.82;3.63;;;;;;;16.40;100.00;95173.69;4975091;28;20142;-50
2021/08/22 01:06:07;;;;;;;6.55;3.85;;;;;;;16.33;100.00;95173.25;4992669;28;20022;-51
2021/08/22 01:08:42;;;;;;;5.97;3.50;;;;;;;16.23;100.00;95171.53;4947264;28;20038;-52
2021/08/22 01:11:13;;;;;;;7.47;3.65;;;;;;;16.09;100.00;95162.63;4979852;28;20034;-48
2021/08/22 01:13:47;;;;;;;5.25;3.13;;;;;;;15.96;100.00;95180.41;4992653;28;20026;-51
2021/08/22 01:16:14;;;;;;;7.32;3.15;;;;;;;15.97;100.00;95190.09;4992687;28;20031;-53
2021/08/22 01:18:41;;;;;;;6.90;3.38;;;;;;;15.93;100.00;95168.25;4992505;28;20023;-53
2021/08/22 01:21:21;;;;;;;6.05;2.90;;;;;;;15.90;100.00;95149.16;4975182;28;20049;-54
2021/08/22 01:23:54;;;;;;;6.13;3.03;;;;;;;15.83;100.00;95144.13;4992408;28;20406;-55
2021/08/22 01:26:31;;;;;;;4.95;3.00;;;;;;;15.79;100.00;95151.22;4992572;28;20030;-53
2021/08/22 01:29:02;;;;;;;8.48;3.58;;;;;;;15.75;100.00;95158.31;4992543;28;20030;-55
2021/08/22 01:31:46;;;;;;;5.28;3.03;;;;;;;15.72;100.00;95152.69;4975380;28;20030;-50
2021/08/22 01:34:14;;;;;;;5.00;3.00;;;;;;;15.73;100.00;95154.28;4992331;28;20022;-55
2021/08/22 01:39:30;;;;;;;5.40;3.67;;;;;;;15.69;100.00;95180.28;4996169;28;20054;-57
2021/08/22 01:41:56;;;;;;;4.97;3.17;;;;;;;15.69;100.00;95185.69;4995823;28;20597;-49
2021/08/22 01:44:25;;;;;;;8.25;3.35;;;;;;;15.69;100.00;95188.41;4995921;28;20069;-50
2021/08/22 01:46:51;;;;;;;7.10;3.30;;;;;;;15.71;100.00;95184.31;4995917;28;20050;-53
2021/08/22 01:49:19;;;;;;;7.53;3.63;;;;;;;15.72;100.00;95168.91;4995901;28;20034;-51
2021/08/22 01:51:45;;;;;;;7.18;3.55;;;;;;;15.70;100.00;95150.28;4995513;28;20050;-55
2021/08/22 01:54:16;;;;;;;4.72;3.00;;;;;;;15.70;100.00;95144.91;4996092;28;20085;-49
2021/08/22 01:56:42;;;;;;;5.90;3.42;;;;;;;15.65;100.00;95118.78;4995740;28;20509;-50
2021/08/22 01:59:10;;;;;;;7.97;3.85;;;;;;;15.61;100.00;95081.84;4995593;28;20031;-48
2021/08/22 02:01:37;;;;;;;8.38;3.35;;;;;;;15.56;100.00;95044.94;4995661;28;20041;-50
2021/08/22 02:04:18;;;;;;;6.32;3.25;;;;;;;15.54;100.00;95044.44;4995623;28;20034;-48
2021/08/22 02:06:52;;;;;;;7.28;2.95;;;;;;;15.53;100.00;95044.75;4995594;28;20100;-53
2021/08/22 02:09:25;;;;;;;5.20;3.20;;;;;;;15.51;100.00;95049.59;4995417;28;20026;-50
2021/08/22 02:11:58;;;;;;;4.32;3.03;;;;;;;15.51;100.00;95057.72;4995426;28;20093;-50
2021/08/22 02:14:30;;;;;;;3.83;3.13;;;;;;;15.51;100.00;95072.00;4978168;28;20038;-52
2021/08/22 02:16:59;;;;;;;4.20;3.00;;;;;;;15.50;100.00;95092.00;4995416;28;20397;-54
2021/08/22 02:19:25;;;;;;;3.72;3.10;;;;;;;15.51;100.00;95107.09;4995480;28;20109;-54
2021/08/22 02:21:53;;;;;;;6.40;3.15;;;;;;;15.52;100.00;95106.03;4995215;28;20105;-49
2021/08/22 02:24:20;;;;;;;8.30;3.50;;;;;;;15.51;100.00;95096.28;4995430;28;20026;-51
2021/08/22 02:26:46;;;;;;;4.45;3.03;;;;;;;15.52;100.00;95102.50;4995195;28;20069;-52
2021/08/22 02:29:11;;;;;;;4.93;3.58;;;;;;;15.51;100.00;95107.09;4995014;28;20022;-49
2021/08/22 02:31:42;;;;;;;4.55;3.45;;;;;;;15.51;100.00;95117.09;4994442;28;20034;-52
2021/08/22 02:34:10;;;;;;;3.95;3.25;;;;;;;15.48;100.00;95121.19;4995089;28;20113;-49
2021/08/22 02:36:39;;;;;;;4.32;3.40;;;;;;;15.45;100.00;95129.09;4994942;28;20022;-49
2021/08/22 02:39:07;;;;;;;6.72;3.33;;;;;;;15.44;100.00;95106.69;4995039;28;20038;-54
2021/08/22 02:41:35;;;;;;;4.45;3.35;;;;;;;15.47;100.00;95099.91;4994907;28;20034;-47
2021/08/22 02:44:01;;;;;;;4.57;3.35;;;;;;;15.47;100.00;95106.09;4995049;28;20037;-48
2021/08/22 02:46:29;;;;;;;6.30;3.60;;;;;;;15.47;100.00;95130.38;4994757;28;20030;-50
2021/08/22 02:48:55;;;;;;;4.28;2.97;;;;;;;15.49;100.00;95135.50;4994858;28;20509;-50
2021/08/22 02:51:20;;;;;;;5.63;3.50;;;;;;;15.50;100.00;95085.81;4961054;28;20034;-50
2021/08/22 02:53:46;;;;;;;5.45;3.47;;;;;;;15.51;100.00;95061.22;5004593;28;20034;-50
2021/08/22 02:56:14;;;;;;;5.85;3.45;;;;;;;15.53;100.00;95044.75;4997785;28;20094;-49
2021/08/22 02:58:39;;;;;;;5.90;3.65;;;;;;;15.51;100.00;95009.13;4994657;28;20421;-49
2021/08/22 03:01:13;;;;;;;6.30;4.53;;;;;;;15.50;100.00;94997.53;4994519;28;20030;-50
2021/08/22 03:03:39;;;;;;;5.10;3.65;;;;;;;15.50;100.00;95008.31;4977045;28;20397;-55
2021/08/22 03:06:08;;;;;;;5.32;3.53;;;;;;;15.50;100.00;95019.13;4994382;28;20029;-51
2021/08/22 03:08:33;;;;;;;5.65;3.35;;;;;;;15.50;100.00;95019.13;4994297;28;20470;-51
2021/08/22 03:11:04;;;;;;;5.57;3.78;;;;;;;15.49;100.00;95036.41;4991343;28;20033;-48
2021/08/22 03:13:29;;;;;;;5.70;3.58;;;;;;;15.48;100.00;95052.91;4993176;28;20026;-49
2021/08/22 03:15:55;;;;;;;5.05;4.22;;;;;;;15.50;100.00;95093.91;4993266;28;20363;-53
2021/08/22 03:18:20;;;;;;;6.40;4.43;;;;;;;15.55;100.00;95091.94;4992741;28;20033;-48
2021/08/22 03:20:49;;;;;;;5.43;3.97;;;;;;;15.59;100.00;95098.31;4976265;28;20516;-52
2021/08/22 03:23:16;;;;;;;5.90;3.67;;;;;;;15.64;100.00;95086.69;4994179;28;20027;-56
2021/08/22 03:25:49;;;;;;;8.57;3.90;;;;;;;15.63;100.00;95074.28;4994065;28;20037;-51
2021/08/22 03:28:17;;;;;;;6.07;4.03;;;;;;;15.64;100.00;95054.28;4994315;28;20038;-54
2021/08/22 03:30:52;;;;;;;5.93;3.80;;;;;;;15.61;100.00;95042.16;4976637;28;20023;-53
2021/08/22 03:33:21;;;;;;;9.02;4.15;;;;;;;15.60;100.00;95010.88;4994261;28;20045;-51
2021/08/22 03:35:49;;;;;;;5.38;3.67;;;;;;;15.60;100.00;94993.88;4976413;28;20164;-51
2021/08/22 03:38:17;;;;;;;6.25;4.15;;;;;;;15.61;100.00;94984.66;4993855;28;20030;-50
2021/08/22 03:40:45;;;;;;;5.38;3.95;;;;;;;15.64;100.00;94978.69;4993929;28;20561;-48
2021/08/22 03:43:16;;;;;;;6.78;4.35;;;;;;;15.64;100.00;94968.69;4993555;28;20030;-51
2021/08/22 03:45:41;;;;;;;6.18;4.07;;;;;;;15.65;100.00;94945.19;4993849;28;20065;-53
2021/08/22 03:48:07;;;;;;;5.18;4.10;;;;;;;15.68;100.00;94941.88;4993654;28;20092;-50
2021/08/22 03:50:35;;;;;;;5.82;4.65;;;;;;;15.70;100.00;94931.56;4993748;28;20437;-50
2021/08/22 03:53:00;;;;;;;5.78;4.38;;;;;;;15.74;100.00;94919.09;4993324;28;20058;-54
2021/08/22 03:55:31;;;;;;;5.68;4.18;;;;;;;15.78;100.00;94911.97;4993589;28;20041;-53
2021/08/22 03:57:56;;;;;;;4.97;4.18;;;;;;;15.81;100.00;94913.28;4993203;28;20026;-52
2021/08/22 04:00:22;;;;;;;6.82;5.10;;;;;;;15.83;100.00;94919.97;4975631;28;20058;-49
2021/08/22 04:02:47;;;;;;;6.03;4.20;;;;;;;15.84;100.00;94937.75;4975846;28;20022;-48
2021/08/22 04:05:13;;;;;;;8.00;4.50;;;;;;;15.84;100.00;94939.66;4993391;28;20057;-48
2021/08/22 04:07:45;;;;;;;7.05;4.75;;;;;;;15.82;100.00;94937.25;4993406;28;20018;-52
2021/08/22 04:10:11;;;;;;;9.40;4.90;;;;;;;15.80;100.00;94944.88;4993245;28;20027;-53
2021/08/22 04:12:39;;;;;;;6.85;4.63;;;;;;;15.80;100.00;94949.47;4993151;28;20519;-49
2021/08/22 04:15:05;;;;;;;8.00;4.65;;;;;;;15.80;100.00;94947.56;4993320;28;20037;-50
2021/08/22 04:17:30;;;;;;;6.82;4.70;;;;;;;15.82;100.00;94939.16;4992864;28;20034;-50
2021/08/22 04:19:56;;;;;;;8.88;5.40;;;;;;;15.82;100.00;94941.88;4993327;28;20041;-50
2021/08/22 04:22:24;;;;;;;6.90;5.60;;;;;;;15.81;100.00;94951.88;5006262;28;20036;-48
2021/08/22 04:24:49;;;;;;;7.43;4.57;;;;;;;15.80;100.00;94961.09;4993118;28;20030;-49
2021/08/22 04:27:15;;;;;;;5.97;4.90;;;;;;;15.81;100.00;94975.38;4993004;28;20125;-51
2021/08/22 04:29:43;;;;;;;6.15;4.60;;;;;;;15.84;100.00;94980.19;4993136;28;20036;-50
2021/08/22 04:32:12;;;;;;;7.18;4.72;;;;;;;15.86;100.00;94992.31;4992871;28;20038;-53
2021/08/22 04:34:43;;;;;;;8.20;5.30;;;;;;;15.87;100.00;95012.81;4993161;28;20396;-48
2021/08/22 04:37:09;;;;;;;7.97;5.18;;;;;;;15.86;100.00;95023.91;4992867;28;20026;-51
2021/08/22 04:39:34;;;;;;;9.18;5.45;;;;;;;15.88;100.00;95003.59;4992881;28;20026;-53
2021/08/22 04:41:59;;;;;;;9.77;5.10;;;;;;;15.89;100.00;94986.28;4976005;28;20034;-51
2021/08/22 04:44:25;;;;;;;13.93;5.07;;;;;;;15.90;100.00;94992.50;4992936;28;20525;-53
2021/08/22 04:46:51;;;;;;;11.52;5.38;;;;;;;15.91;100.00;94986.78;4975953;28;20043;-51
2021/08/22 04:49:25;;;;;;;8.02;5.20;;;;;;;15.92;100.00;94955.16;4975511;28;20061;-49
2021/08/22 04:54:43;;;;;;;8.60;5.75;;;;;;;15.90;100.00;94966.28;4970448;28;20050;-51
2021/08/22 04:57:09;;;;;;;9.77;4.90;;;;;;;15.93;100.00;94970.28;4974362;28;20509;-52
2021/08/22 04:59:37;;;;;;;30.98;6.78;;;;;;;15.93;100.00;94964.88;4973351;28;20030;-55
2021/08/22 05:02:04;;;;;;;10.63;6.35;;;;;;;15.93;100.00;94954.88;4973190;28;20026;-51
2021/08/22 05:04:30;;;;;;;6.63;5.30;;;;;;;15.92;100.00;94953.28;4973180;28;20118;-55
2021/08/22 05:06:56;;;;;;;7.95;5.60;;;;;;;15.93;100.00;94949.47;4956001;28;20420;-55
2021/08/22 05:09:24;;;;;;;8.55;5.65;;;;;;;15.94;100.00;94939.47;4971844;28;20023;-56
2021/08/22 05:12:10;;;;;;;7.28;5.22;;;;;;;15.94;100.00;94939.47;4974307;28;20019;-56
2021/08/22 05:14:36;;;;;;;7.50;5.13;;;;;;;15.93;100.00;94943.25;4977219;28;20042;-51
2021/08/22 05:17:02;;;;;;;7.30;5.80;;;;;;;15.92;100.00;94958.66;4976824;28;20027;-54
2021/08/22 05:19:28;;;;;;;7.40;5.30;;;;;;;15.96;100.00;94961.59;4977028;28;20027;-55
2021/08/22 05:21:53;;;;;;;7.28;5.50;;;;;;;15.99;100.00;94958.28;4959463;28;20367;-54
2021/08/22 05:24:19;;;;;;;12.38;5.30;;;;;;;16.03;100.00;94947.66;4975751;28;20031;-51
2021/08/22 05:26:47;;;;;;;10.20;6.50;;;;;;;16.04;100.00;94951.97;4976765;28;20105;-56
2021/08/22 05:29:21;;;;;;;6.97;5.40;;;;;;;16.07;100.00;94951.38;4975635;28;20493;-55
2021/08/22 05:31:49;;;;;;;10.07;5.90;;;;;;;16.07;100.00;94935.97;4976694;28;20082;-54
2021/08/22 05:34:17;;;;;;;7.47;6.10;;;;;;;16.08;100.00;94921.34;4976747;28;20023;-55
2021/08/22 05:36:43;;;;;;;6.88;5.38;;;;;;;16.09;100.00;94924.84;4976636;28;20073;-55
2021/08/22 05:39:08;;;;;;;7.03;5.32;;;;;;;16.11;100.00;94928.03;4975582;28;20030;-52
2021/08/22 05:41:53;;;;;;;8.77;6.20;;;;;;;16.12;100.00;94927.72;4976637;28;20099;-56
2021/08/22 05:44:21;;;;;;;6.80;5.40;;;;;;;16.15;100.00;94926.31;4959341;28;20161;-56
2021/08/22 05:46:49;;;;;;;8.20;5.45;;;;;;;16.16;100.00;94926.00;4976303;28;20031;-56
2021/08/22 05:49:15;;;;;;;7.63;5.53;;;;;;;16.20;100.00;94931.63;4975153;28;20018;-55
2021/08/22 05:51:45;;;;;;;7.25;5.20;;;;;;;16.23;100.00;94931.00;4976451;28;20023;-52
2021/08/22 05:54:13;;;;;;;7.40;5.18;;;;;;;16.28;100.00;94930.09;4958450;28;20043;-51
2021/08/22 05:56:38;;;;;;;9.05;5.88;;;;;;;16.32;100.00;94920.28;4976200;28;20031;-51
2021/08/22 05:59:04;;;;;;;7.65;5.28;;;;;;;16.36;100.00;94924.78;4976346;28;20415;-55
2021/08/22 06:01:32;;;;;;;8.00;5.57;;;;;;;16.42;100.00;94934.38;4976131;28;20086;-56
2021/08/22 06:03:57;;;;;;;6.60;5.10;;;;;;;16.46;100.00;94923.75;4976180;28;20030;-55
2021/08/22 06:06:23;;;;;;;7.97;5.50;;;;;;;16.52;100.00;94925.25;4976291;28;20045;-56
2021/08/22 06:08:48;;;;;;;7.85;5.63;;;;;;;16.52;100.00;94914.41;4976121;28;20489;-54
2021/08/22 06:11:14;;;;;;;6.80;5.07;;;;;;;16.53;100.00;94921.44;4975900;28;20532;-55
2021/08/22 06:13:39;;;;;;;7.13;5.60;;;;;;;16.52;100.00;94922.53;4975959;28;20545;-54
2021/08/22 06:16:05;;;;;;;7.50;5.68;;;;;;;16.56;100.00;94926.22;4952874;28;20030;-52
2021/08/22 06:18:30;;;;;;;6.78;5.50;;;;;;;16.62;100.00;94921.50;4934837;28;20051;-63
2021/08/22 06:20:56;;;;;;;7.70;6.00;;;;;;;16.70;100.00;94918.06;4974193;28;20046;-56
2021/08/22 06:23:29;;;;;;;11.25;5.40;;;;;;;16.71;100.00;94906.13;4974639;28;20027;-52
2021/08/22 06:25:54;;;;;;;;;;;;;;;16.76;100.00;94892.50;4976266;28;20018;-53
2021/08/22 06:28:19;;;;;;;7.63;5.40;;;;;;;16.83;100.00;94905.63;4977659;28;20369;-51
2021/08/22 06:30:47;;;;;;;7.63;5.25;;;;;;;16.89;100.00;94898.94;4957196;28;20034;-57
2021/08/22 06:33:12;;;;;;;7.15;5.55;;;;;;;16.97;100.00;94895.50;4966205;28;20030;-51
2021/08/22 06:35:38;;;;;;;8.77;5.07;;;;;;;17.02;100.00;94893.47;4975209;28;20485;-51
2021/08/22 06:38:04;;;;;;;6.38;5.18;;;;;;;17.03;100.00;94905.06;4979849;28;20441;-51
2021/08/22 06:40:37;;;;;;;7.30;4.90;;;;;;;17.09;100.00;94906.56;4977462;28;20058;-52
2021/08/22 06:43:07;;;;;;;9.00;5.38;;;;;;;17.11;100.00;94904.34;4975237;28;20029;-52
2021/08/22 06:45:33;;;;;;;9.07;5.45;;;;;;;17.12;100.00;94914.03;4974410;28;20077;-54
2021/08/22 06:48:08;;;;;;;8.35;5.57;;;;;;;17.08;100.00;94913.09;4957984;28;20026;-52
2021/08/22 06:50:37;;;;;;;8.35;5.40;;;;;;;17.10;100.00;94913.56;4975338;28;20030;-52
2021/08/22 06:53:02;;;;;;;7.15;5.32;;;;;;;17.13;100.00;94912.13;4971820;28;20458;-51
2021/08/22 06:55:34;;;;;;;7.80;5.75;;;;;;;17.16;100.00;94920.47;4969641;28;20041;-57
2021/08/22 06:57:59;;;;;;;7.75;5.40;;;;;;;17.15;100.00;94931.56;4972643;28;20069;-51
2021/08/22 07:00:30;;;;;;;6.47;5.50;;;;;;;17.13;100.00;94931.88;4973525;28;20022;-56
2021/08/22 07:03:04;;;;;;;6.78;5.57;;;;;;;17.14;100.00;94919.16;4975147;28;20065;-56
2021/08/22 07:05:29;;;;;;;6.88;5.45;;;;;;;17.21;100.00;94925.72;4974933;28;20026;-53
2021/08/22 07:08:01;;;;;;;6.85;5.18;;;;;;;17.24;100.00;94924.31;4983200;28;20079;-51
2021/08/22 07:10:36;;;;;;;7.65;5.13;;;;;;;17.34;100.00;94934.88;4972925;28;20042;-55
2021/08/22 07:13:01;;;;;;;7.15;5.35;;;;;;;17.38;100.00;94931.25;4971846;28;20015;-55
2021/08/22 07:15:37;;;;;;;6.38;5.20;;;;;;;17.45;100.00;94935.41;4969411;28;20046;-53
2021/08/22 07:18:02;;;;;;;6.85;5.10;;;;;;;17.49;100.00;94936.38;4980520;28;20031;-55
2021/08/22 07:20:27;;;;;;;6.97;4.85;;;;;;;17.59;100.00;94934.22;4973662;28;20030;-55
2021/08/22 07:22:53;;;;;;;7.68;4.72;;;;;;;17.68;100.00;94928.81;4968743;28;20386;-56
2021/08/22 07:25:20;;;;;;;8.23;5.50;;;;;;;17.78;100.00;94925.84;4974196;28;20030;-52
2021/08/22 07:28:07;;;;;;;6.57;5.00;;;;;;;17.84;100.00;94938.16;4979005;28;20111;-51
2021/08/22 07:30:34;;;;;;;6.82;4.70;;;;;;;18.02;100.00;94933.59;4972063;28;20033;-52
2021/08/22 07:33:07;;;;;;;7.32;4.75;;;;;;;18.16;100.00;94926.13;4973743;28;20031;-51
2021/08/22 07:35:40;;;;;;;;;;;;;;;18.21;100.00;94936.00;4974040;28;20042;-54
2021/08/22 07:38:08;;;;;;;6.10;4.63;;;;;;;18.39;100.00;94928.69;4958208;28;20537;-53
2021/08/22 07:40:34;;;;;;;7.97;4.68;;;;;;;18.65;100.00;94920.59;4974313;28;20105;-53
2021/08/22 07:43:00;;;;;;;8.20;5.32;;;;;;;18.83;100.00;94925.69;4972960;28;20101;-51
2021/08/22 07:45:25;;;;;;;5.85;5.07;;;;;;;18.93;100.00;94911.00;4974306;28;20026;-53
2021/08/22 07:47:53;;;;;;;5.60;4.72;;;;;;;19.04;100.00;94904.13;4972642;28;20019;-51
2021/08/22 07:50:18;;;;;;;5.93;4.15;;;;;;;19.07;100.00;94898.03;4974049;28;20074;-51
2021/08/22 07:52:49;;;;;;;7.10;4.55;;;;;;;19.14;100.00;94889.41;4973536;28;20450;-51
2021/08/22 07:55:17;;;;;;;5.82;3.85;;;;;;;19.13;100.00;94878.88;4974054;28;20027;-51
2021/08/22 07:58:06;;;;;;;5.70;4.38;;;;;;;19.24;100.00;94861.09;4972804;28;20022;-51
2021/08/22 08:00:32;;;;;;;6.45;4.90;;;;;;;19.22;100.00;94850.56;4974045;28;20029;-51
2021/08/22 08:03:07;;;;;;;6.07;4.05;;;;;;;19.32;100.00;94828.50;4974068;28;20018;-51
2021/08/22 08:05:45;;;;;;;7.40;4.63;;;;;;;19.37;100.00;94811.22;4974054;28;20433;-51
2021/08/22 08:08:21;;;;;;;9.52;5.07;;;;;;;19.51;100.00;94792.75;4973929;28;20450;-50
2021/08/22 08:10:55;;;;;;;7.53;4.90;;;;;;;19.47;100.00;94783.69;4973915;28;20031;-51
2021/08/22 08:13:20;;;;;;;5.65;4.32;;;;;;;19.46;100.00;94773.94;4937668;28;20037;-50
2021/08/22 08:15:48;;;;;;;5.68;4.22;;;;;;;19.64;100.00;94770.00;4976017;28;20022;-51
2021/08/22 08:18:13;;;;;;;7.45;4.50;;;;;;;19.83;100.00;94757.91;4993171;28;20366;-55
2021/08/22 08:20:48;;;;;;;6.15;4.07;;;;;;;20.07;100.00;94754.50;4993108;28;20033;-54
2021/08/22 08:23:19;;;;;;;4.90;3.75;;;;;;;20.22;100.00;94746.56;4993077;28;20049;-51
2021/08/22 08:25:49;;;;;;;5.25;3.85;;;;;;;20.25;100.00;94736.94;4993160;28;20444;-56
2021/08/22 08:28:21;;;;;;;4.70;3.78;;;;;;;20.35;100.00;94746.59;4990677;28;20018;-51
2021/08/22 08:30:51;;;;;;;5.38;3.85;;;;;;;20.33;100.00;94748.84;4992762;28;20022;-54
2021/08/22 08:33:16;;;;;;;5.43;4.00;;;;;;;20.33;100.00;94749.66;4991560;28;20084;-51
2021/08/22 08:35:42;;;;;;;5.07;3.70;;;;;;;20.35;100.00;94746.59;4992968;28;20018;-51
2021/08/22 08:38:15;;;;;;;5.95;3.88;;;;;;;20.48;100.00;94759.13;4991645;28;20062;-54
2021/08/22 08:40:43;;;;;;;4.72;3.65;;;;;;;20.40;100.00;94768.94;4992889;28;20023;-56
2021/08/22 08:43:15;;;;;;;5.78;4.30;;;;;;;20.59;100.00;94786.72;4991490;28;20085;-52
2021/08/22 08:45:53;;;;;;;6.53;3.63;;;;;;;20.50;100.00;94798.47;4992544;28;20460;-55
2021/08/22 08:48:24;;;;;;;5.57;4.22;;;;;;;20.59;100.00;94811.22;4992752;28;20146;-52
2021/08/22 08:51:17;;;;;;;6.03;3.83;;;;;;;20.59;100.00;94824.81;4992911;28;20022;-55
2021/08/22 08:53:49;;;;;;;;;;;;;;;20.48;100.00;94843.47;4975409;28;20084;-53
2021/08/22 08:56:18;;;;;;;6.97;3.90;;;;;;;20.49;100.00;94853.22;4989338;28;19918;-61
2021/08/22 08:58:46;;;;;;;4.97;3.97;;;;;;;20.52;100.00;94863.47;4972918;28;20031;-53
2021/08/22 09:01:18;;;;;;;5.30;3.70;;;;;;;20.45;100.00;94868.63;4990494;28;20488;-51
2021/08/22 09:04:13;;;;;;;7.47;4.22;;;;;;;20.34;100.00;94889.16;4990133;28;20116;-52
2021/08/22 09:07:15;;;;;;;5.03;4.07;;;;;;;20.31;100.00;94893.34;4997276;28;20021;-50
2021/08/22 09:10:17;;;;;;;5.20;3.55;;;;;;;20.31;100.00;94903.44;4987874;28;20412;-51
2021/08/22 09:13:20;;;;;;;5.55;3.70;;;;;;;20.37;100.00;94913.78;4982674;28;20105;-51
2021/08/22 09:16:23;;;;;;;4.78;3.58;;;;;;;20.42;100.00;94921.78;4986409;28;20141;-53
2021/08/22 09:19:26;;;;;;;6.40;4.03;;;;;;;20.55;100.00;94934.34;4971946;28;20034;-51
2021/08/22 09:21:54;;;;;;;6.38;3.88;;;;;;;20.90;100.00;94944.16;4981819;28;20033;-51
2021/08/22 09:24:57;;;;;;;6.57;4.60;;;;;;;21.11;100.00;94956.59;4986233;28;20133;-59
2021/08/22 09:27:47;;;;;;;5.80;4.35;;;;;;;21.46;100.00;94961.75;4984045;28;20617;-52
2021/08/22 09:30:31;;;;;;;5.43;4.30;;;;;;;21.55;100.00;94986.97;4983896;28;20477;-50
2021/08/22 09:33:35;;;;;;;5.55;4.00;;;;;;;21.53;100.00;95013.78;4983470;28;20041;-56
2021/08/22 09:36:12;;;;;;;8.55;4.50;;;;;;;21.67;100.00;95014.25;4942446;28;20571;-52
2021/08/22 09:39:11;;;;;;;6.15;4.30;;;;;;;21.61;100.00;95012.91;4987663;28;20057;-50
2021/08/22 09:42:07;;;;;;;6.25;4.55;;;;;;;21.53;100.00;95024.69;4991516;28;20026;-52
2021/08/22 09:45:10;;;;;;;5.57;3.90;;;;;;;21.87;100.00;95015.34;4992200;28;20800;-50
2021/08/22 09:48:00;;;;;;;6.35;4.05;;;;;;;21.83;100.00;95038.97;4992109;28;20065;-53
2021/08/22 09:50:33;;;;;;;9.70;4.78;;;;;;;21.98;100.00;95043.75;4977854;28;20581;-50
2021/08/22 09:53:01;;;;;;;6.85;4.15;;;;;;;22.04;100.00;95059.94;4991736;28;20050;-50
2021/08/22 09:55:45;;;;;;;7.60;4.22;;;;;;;22.10;100.00;95070.28;4992199;28;20105;-51
2021/08/22 09:58:47;;;;;;;4.90;4.30;;;;;;;22.07;100.00;95056.53;4992268;28;20034;-54
2021/08/22 10:01:47;;;;;;;5.53;4.20;;;;;;;21.87;100.00;95074.53;4974896;28;20054;-53
2021/08/22 10:04:39;;;;;;;6.20;4.25;;;;;;;21.95;100.00;95062.75;4991414;28;20025;-53
2021/08/22 10:07:28;;;;;;;4.88;4.05;;;;;;;21.93;100.00;95071.25;4993941;28;20053;-53
2021/08/22 10:10:24;;;;;;;7.82;4.53;;;;;;;21.90;100.00;95061.00;4990850;28;20077;-52
2021/08/22 10:12:52;;;;;;;5.35;4.00;;;;;;;21.85;100.00;95082.25;4995226;28;20385;-52
2021/08/22 10:15:19;;;;;;;6.43;4.82;;;;;;;21.92;100.00;95079.75;4994204;28;20089;-51
2021/08/22 10:17:50;;;;;;;5.55;3.78;;;;;;;21.95;100.00;95069.00;4993883;28;20114;-51
2021/08/22 10:20:17;;;;;;;6.97;4.57;;;;;;;22.05;100.00;95075.16;4995416;28;20455;-54
2021/08/22 10:22:48;;;;;;;7.68;4.30;;;;;;;21.95;100.00;95074.44;4995292;28;20486;-50
2021/08/22 10:25:19;;;;;;;5.57;4.53;;;;;;;21.74;100.00;95062.00;4977794;28;20030;-54
2021/08/22 10:27:46;;;;;;;7.25;4.68;;;;;;;21.65;100.00;95064.81;4995210;28;20054;-50
2021/08/22 10:30:43;;;;;;;5.07;4.40;;;;;;;21.76;100.00;95033.25;4990990;28;20030;-49
2021/08/22 10:33:12;;;;;;;5.25;4.20;;;;;;;21.87;100.00;95039.06;4994809;28;20077;-54
2021/08/22 10:35:41;;;;;;;6.25;4.55;;;;;;;21.99;100.00;95031.72;4973189;28;20022;-52
2021/08/22 10:38:21;;;;;;;5.88;4.25;;;;;;;22.04;100.00;95030.72;4987078;28;20038;-49
2021/08/22 10:40:50;;;;;;;5.10;4.15;;;;;;;21.95;100.00;95030.81;4983720;28;20026;-53
2021/08/22 10:43:18;;;;;;;6.55;4.75;;;;;;;21.95;100.00;95052.63;4985279;28;20045;-54
2021/08/22 10:45:46;;;;;;;6.10;4.28;;;;;;;22.37;100.00;95025.22;4992088;28;20113;-50
2021/08/22 10:48:24;;;;;;;7.05;4.15;;;;;;;22.78;100.00;95061.56;4977361;28;20113;-51
2021/08/22 10:50:58;;;;;;;6.07;4.10;;;;;;;23.11;100.00;95075.88;4994290;28;20034;-50
2021/08/22 10:53:43;;;;;;;5.82;4.38;;;;;;;23.48;100.00;95091.41;5022140;23;20100;-61
2021/08/22 10:56:29;;;;;;;5.22;4.15;;;;;;;23.40;100.00;95140.41;5021910;28;20034;-60
2021/08/22 10:59:04;;;;;;;5.13;3.80;;;;;;;23.27;100.00;95138.84;5016005;28;20088;-59
2021/08/22 11:01:36;;;;;;;6.05;3.83;;;;;;;23.26;100.00;95131.00;5033754;28;20024;-60
2021/08/22 11:04:10;;;;;;;3.87;3.33;;;;;;;22.53;100.00;95115.38;5014094;28;20026;-59
2021/08/22 11:06:37;;;;;;;4.75;3.80;;;;;;;21.94;100.00;95080.25;5015713;28;20053;-61
2021/08/22 11:09:04;;;;;;;3.75;2.95;;;;;;;21.59;100.00;95071.56;5021634;28;20029;-61
2021/08/22 11:11:30;;;;;;;3.55;2.88;;;;;;;21.29;100.00;95060.81;5031394;28;20048;-58
2021/08/22 11:13:58;;;;;;;3.88;3.08;;;;;;;20.96;100.00;95057.97;5013987;28;20507;-60
2021/08/22 11:16:45;;;;;;;4.03;3.42;;;;;;;20.83;100.00;95024.41;5021954;28;20045;-59
2021/08/22 11:19:21;;;;;;;3.92;3.10;;;;;;;20.52;100.00;95013.91;5030566;28;20072;-58
2021/08/22 11:21:47;;;;;;;3.63;3.10;;;;;;;20.28;100.00;95022.63;5027001;28;20044;-61
2021/08/22 11:24:15;;;;;;;4.57;2.67;;;;;;;20.18;100.00;95003.16;5028816;28;20520;-59
2021/08/22 11:26:59;;;;;;;3.10;2.70;;;;;;;19.93;100.00;94994.00;5013817;28;20481;-59
2021/08/22 11:29:34;;;;;;;4.97;3.42;;;;;;;19.83;100.00;94987.00;5013781;28;20030;-58
2021/08/22 11:32:08;;;;;;;2.97;2.58;;;;;;;19.61;100.00;94984.50;5018164;28;20026;-61
2021/08/22 11:34:40;;;;;;;4.05;3.33;;;;;;;19.48;100.00;94969.97;5029719;28;20034;-60
2021/08/22 11:37:19;;;;;;;3.60;3.30;;;;;;;19.37;100.00;94976.88;5032297;28;20029;-60
2021/08/22 11:39:45;;;;;;;4.07;3.30;;;;;;;19.27;100.00;94979.94;5013934;28;20034;-60
2021/08/22 11:42:21;;;;;;;3.60;3.03;;;;;;;19.18;100.00;94998.94;5014036;28;20111;-58
2021/08/22 11:45:08;;;;;;;5.40;3.63;;;;;;;19.09;100.00;95015.22;5022486;28;20022;-57
2021/08/22 11:47:36;;;;;;;5.13;3.40;;;;;;;19.05;100.00;95010.78;5013894;28;20065;-60
2021/08/22 11:50:07;;;;;;;5.07;3.83;;;;;;;19.04;100.00;95012.69;5015788;28;20077;-59